sensor_id;sensor_type;location;lat;lon;timestamp;pressure;altitude;pressure_sealevel;temperature;humidity
31096;BME280;17749;51.962;8.560;2024-01-30T06:01:33;101130.53;;;3.20;100.00
31096;BME280;17749;51.962;8.560;2024-01-30T06:04:01;101130.47;;;3.14;100.00
31096;BME280;17749;51.962;8.560;2024-01-30T06:06:28;101133.09;;;3.14;100.00
31096;BME280;17749;51.962;8.560;2024-01-30T06:08:56;101129.56;;;3.07;100.00
31096;BME280;17749;51.962;8.560;2024-01-30T06:11:23;101128.66;;;3.06;100.00
31096;BME280;17749;51.962;8.560;2024-01-30T06:13:50;101128.66;;;3.05;100.00
31096;BME280;17749;51.962;8.560;2024-01-30T06:16:17;101136.56;;;3.06;100.00
31096;BME280;17749;51.962;8.560;2024-01-30T06:18:44;101134.81;;;3.08;100.00
31096;BME280;17749;51.962;8.560;2024-01-30T06:21:11;101133.94;;;3.08;100.00
31096;BME280;17749;51.962;8.560;2024-01-30T06:23:39;101126.94;;;3.10;100.00
31096;BME280;17749;51.962;8.560;2024-01-30T06:26:08;101128.72;;;3.13;100.00
31096;BME280;17749;51.962;8.560;2024-01-30T06:28:36;101126.09;;;3.14;100.00
31096;BME280;17749;51.962;8.560;2024-01-30T06:31:03;101127.84;;;3.12;100.00
31096;BME280;17749;51.962;8.560;2024-01-30T06:33:30;101132.25;;;3.16;100.00
31096;BME280;17749;51.962;8.560;2024-01-30T06:35:57;101125.22;;;3.17;100.00
31096;BME280;17749;51.962;8.560;2024-01-30T06:38:24;101125.22;;;3.14;100.00
31096;BME280;17749;51.962;8.560;2024-01-30T06:40:51;101131.38;;;3.16;100.00
31096;BME280;17749;51.962;8.560;2024-01-30T06:43:18;101125.22;;;3.14;100.00
31096;BME280;17749;51.962;8.560;2024-01-30T06:45:45;101134.88;;;3.15;100.00
31096;BME280;17749;51.962;8.560;2024-01-30T06:48:13;101127.00;;;3.15;100.00
31096;BME280;17749;51.962;8.560;2024-01-30T06:50:40;101127.00;;;3.15;100.00
31096;BME280;17749;51.962;8.560;2024-01-30T06:53:07;101138.41;;;3.18;100.00
31096;BME280;17749;51.962;8.560;2024-01-30T06:55:34;101129.69;;;3.22;100.00
31096;BME280;17749;51.962;8.560;2024-01-30T06:58:01;101134.91;;;3.21;100.00
31096;BME280;17749;51.962;8.560;2024-01-30T07:00:28;101135.81;;;3.23;100.00
31096;BME280;17749;51.962;8.560;2024-01-30T07:02:55;101134.03;;;3.19;100.00
31096;BME280;17749;51.962;8.560;2024-01-30T07:05:22;101129.66;;;3.24;100.00
31096;BME280;17749;51.962;8.560;2024-01-30T07:07:49;101121.78;;;3.27;100.00
31096;BME280;17749;51.962;8.560;2024-01-30T07:10:16;101127.94;;;3.27;100.00
31096;BME280;17749;51.962;8.560;2024-01-30T07:12:43;101120.03;;;3.29;100.00
31096;BME280;17749;51.962;8.560;2024-01-30T07:15:11;101122.72;;;3.34;100.00
31096;BME280;17749;51.962;8.560;2024-01-30T07:17:38;101116.59;;;3.36;100.00
31096;BME280;17749;51.962;8.560;2024-01-30T07:20:06;101121.84;;;3.38;100.00
31096;BME280;17749;51.962;8.560;2024-01-30T07:22:34;101120.97;;;3.37;100.00
31096;BME280;17749;51.962;8.560;2024-01-30T07:25:01;101128.00;;;3.43;100.00
31096;BME280;17749;51.962;8.560;2024-01-30T07:27:28;101128.03;;;3.44;100.00
31096;BME280;17749;51.962;8.560;2024-01-30T07:29:55;101128.03;;;3.47;100.00
31096;BME280;17749;51.962;8.560;2024-01-30T07:32:22;101121.94;;;3.48;100.00
31096;BME280;17749;51.962;8.560;2024-01-30T07:34:49;101128.94;;;3.49;100.00
31096;BME280;17749;51.962;8.560;2024-01-30T07:37:34;101129.81;;;3.53;100.00
31096;BME280;17749;51.962;8.560;2024-01-30T07:40:02;101123.69;;;3.56;100.00
31096;BME280;17749;51.962;8.560;2024-01-30T07:42:30;101125.47;;;3.60;100.00
31096;BME280;17749;51.962;8.560;2024-01-30T07:44:57;101132.50;;;3.64;100.00
31096;BME280;17749;51.962;8.560;2024-01-30T07:47:23;101130.78;;;3.69;100.00
31096;BME280;17749;51.962;8.560;2024-01-30T07:49:50;101130.81;;;3.73;100.00
31096;BME280;17749;51.962;8.560;2024-01-30T07:52:18;101131.72;;;3.80;100.00
31096;BME280;17749;51.962;8.560;2024-01-30T07:54:45;101132.63;;;3.88;100.00
31096;BME280;17749;51.962;8.560;2024-01-30T07:57:12;101132.63;;;3.91;100.00
31096;BME280;17749;51.962;8.560;2024-01-30T07:59:39;101134.38;;;3.95;100.00
31096;BME280;17749;51.962;8.560;2024-01-30T08:02:05;101138.81;;;4.03;100.00
31096;BME280;17749;51.962;8.560;2024-01-30T08:04:33;101136.19;;;4.04;100.00
31096;BME280;17749;51.962;8.560;2024-01-30T08:06:59;101128.28;;;4.06;100.00
31096;BME280;17749;51.962;8.560;2024-01-30T08:09:27;101135.34;;;4.10;100.00
31096;BME280;17749;51.962;8.560;2024-01-30T08:11:53;101134.44;;;4.11;100.00
31096;BME280;17749;51.962;8.560;2024-01-30T08:14:20;101123.94;;;4.14;100.00
31096;BME280;17749;51.962;8.560;2024-01-30T08:16:47;101125.69;;;4.21;100.00
31096;BME280;17749;51.962;8.560;2024-01-30T08:19:15;101121.31;;;4.31;100.00
31096;BME280;17749;51.962;8.560;2024-01-30T08:21:42;101120.44;;;4.39;100.00
31096;BME280;17749;51.962;8.560;2024-01-30T08:24:09;101122.22;;;4.47;100.00
31096;BME280;17749;51.962;8.560;2024-01-30T08:26:36;101124.84;;;4.53;100.00
31096;BME280;17749;51.962;8.560;2024-01-30T08:29:03;101120.47;;;4.67;100.00
31096;BME280;17749;51.962;8.560;2024-01-30T08:31:31;101115.19;;;4.76;100.00
31096;BME280;17749;51.962;8.560;2024-01-30T08:33:58;101127.50;;;4.87;100.00
31096;BME280;17749;51.962;8.560;2024-01-30T08:36:25;101125.75;;;4.86;100.00
31096;BME280;17749;51.962;8.560;2024-01-30T08:38:52;101125.75;;;4.92;100.00
31096;BME280;17749;51.962;8.560;2024-01-30T08:41:26;101136.31;;;5.04;100.00
31096;BME280;17749;51.962;8.560;2024-01-30T08:43:53;101143.31;;;5.08;100.00
31096;BME280;17749;51.962;8.560;2024-01-30T08:46:20;101144.22;;;5.10;100.00
31096;BME280;17749;51.962;8.560;2024-01-30T08:48:47;101152.16;;;5.16;100.00
31096;BME280;17749;51.962;8.560;2024-01-30T08:51:15;101152.13;;;5.22;100.00
31096;BME280;17749;51.962;8.560;2024-01-30T08:53:42;101150.34;;;5.27;100.00
31096;BME280;17749;51.962;8.560;2024-01-30T08:56:09;101145.03;;;5.37;100.00
31096;BME280;17749;51.962;8.560;2024-01-30T08:58:36;101148.56;;;5.45;100.00
31096;BME280;17749;51.962;8.560;2024-01-30T09:01:04;101148.53;;;5.54;100.00
31096;BME280;17749;51.962;8.560;2024-01-30T09:03:32;101152.00;;;5.65;100.00
31096;BME280;17749;51.962;8.560;2024-01-30T09:05:59;101144.94;;;5.77;100.00
31096;BME280;17749;51.962;8.560;2024-01-30T09:08:26;101145.78;;;5.85;100.00
31096;BME280;17749;51.962;8.560;2024-01-30T09:10:54;101139.59;;;5.97;100.00
31096;BME280;17749;51.962;8.560;2024-01-30T09:13:21;101146.59;;;6.08;100.00
31096;BME280;17749;51.962;8.560;2024-01-30T09:15:48;101148.31;;;6.19;100.00
31096;BME280;17749;51.962;8.560;2024-01-30T09:18:16;101144.72;;;6.27;100.00
31096;BME280;17749;51.962;8.560;2024-01-30T09:20:43;101148.16;;;6.43;100.00
31096;BME280;17749;51.962;8.560;2024-01-30T09:23:12;101146.31;;;6.54;100.00
31096;BME280;17749;51.962;8.560;2024-01-30T09:25:39;101153.28;;;6.65;100.00
31096;BME280;17749;51.962;8.560;2024-01-30T09:28:05;101146.16;;;6.79;100.00
31096;BME280;17749;51.962;8.560;2024-01-30T09:30:33;101142.53;;;6.89;100.00
31096;BME280;17749;51.962;8.560;2024-01-30T09:32:59;101144.19;;;6.99;100.00
31096;BME280;17749;51.962;8.560;2024-01-30T09:35:27;101147.66;;;7.08;100.00
31096;BME280;17749;51.962;8.560;2024-01-30T09:37:54;101147.59;;;7.14;100.00
31096;BME280;17749;51.962;8.560;2024-01-30T09:40:21;101143.97;;;7.24;100.00
31096;BME280;17749;51.962;8.560;2024-01-30T09:42:50;101148.28;;;7.33;100.00
31096;BME280;17749;51.962;8.560;2024-01-30T09:45:18;101149.13;;;7.39;100.00
31096;BME280;17749;51.962;8.560;2024-01-30T09:47:45;101150.78;;;7.46;100.00
31096;BME280;17749;51.962;8.560;2024-01-30T09:50:14;101152.50;;;7.54;100.00
31096;BME280;17749;51.962;8.560;2024-01-30T09:52:46;101140.06;;;7.59;100.00
31096;BME280;17749;51.962;8.560;2024-01-30T09:55:14;101143.50;;;7.67;100.00
31096;BME280;17749;51.962;8.560;2024-01-30T09:57:41;101148.75;;;7.70;100.00
31096;BME280;17749;51.962;8.560;2024-01-30T10:00:09;101146.94;;;7.78;100.00
31096;BME280;17749;51.962;8.560;2024-01-30T10:02:40;101143.31;;;7.82;100.00
31096;BME280;17749;51.962;8.560;2024-01-30T10:05:08;101140.63;;;7.87;100.00
31096;BME280;17749;51.962;8.560;2024-01-30T10:07:35;101135.28;;;7.90;100.00
31096;BME280;17749;51.962;8.560;2024-01-30T10:10:02;101136.09;;;7.94;100.00
31096;BME280;17749;51.962;8.560;2024-01-30T10:12:29;101128.97;;;7.99;100.00
31096;BME280;17749;51.962;8.560;2024-01-30T10:14:56;101131.59;;;8.02;100.00
31096;BME280;17749;51.962;8.560;2024-01-30T10:17:25;101139.47;;;8.08;100.00
31096;BME280;17749;51.962;8.560;2024-01-30T10:19:59;101140.28;;;8.11;100.00
31096;BME280;17749;51.962;8.560;2024-01-30T10:22:28;101135.78;;;8.18;100.00
31096;BME280;17749;51.962;8.560;2024-01-30T10:24:55;101137.47;;;8.25;100.00
31096;BME280;17749;51.962;8.560;2024-01-30T10:27:28;101147.91;;;8.38;100.00
31096;BME280;17749;51.962;8.560;2024-01-30T10:29:58;101145.16;;;8.45;100.00
31096;BME280;17749;51.962;8.560;2024-01-30T10:32:25;101143.25;;;8.53;100.00
31096;BME280;17749;51.962;8.560;2024-01-30T10:34:52;101144.06;;;8.60;100.00
31096;BME280;17749;51.962;8.560;2024-01-30T10:37:21;101142.22;;;8.65;100.00
31096;BME280;17749;51.962;8.560;2024-01-30T10:39:53;101143.84;;;8.75;100.00
31096;BME280;17749;51.962;8.560;2024-01-30T10:42:25;101139.22;;;8.85;100.00
31096;BME280;17749;51.962;8.560;2024-01-30T10:47:26;101139.81;;;9.04;100.00
31096;BME280;17749;51.962;8.560;2024-01-30T10:49:54;101136.09;;;9.14;100.00
31096;BME280;17749;51.962;8.560;2024-01-30T10:52:24;101134.16;;;9.23;100.00
31096;BME280;17749;51.962;8.560;2024-01-30T10:54:56;101119.81;;;9.33;100.00
31096;BME280;17749;51.962;8.560;2024-01-30T10:57:24;101120.56;;;9.39;100.00
31096;BME280;17749;51.962;8.560;2024-01-30T10:59:53;101124.72;;;9.54;100.00
31096;BME280;17749;51.962;8.560;2024-01-30T11:02:23;101118.19;;;9.69;100.00
31096;BME280;17749;51.962;8.560;2024-01-30T11:04:57;101111.78;;;9.79;100.00
31096;BME280;17749;51.962;8.560;2024-01-30T11:07:29;101115.06;;;9.92;100.00
31096;BME280;17749;51.962;8.560;2024-01-30T11:12:32;101107.59;;;10.09;100.00
31096;BME280;17749;51.962;8.560;2024-01-30T11:15:07;101106.50;;;10.18;100.00
31096;BME280;17749;51.962;8.560;2024-01-30T11:22:47;101107.06;;;10.34;100.00
31096;BME280;17749;51.962;8.560;2024-01-30T11:25:16;101107.75;;;10.42;100.00
31096;BME280;17749;51.962;8.560;2024-01-30T11:27:44;101097.88;;;10.47;100.00
31096;BME280;17749;51.962;8.560;2024-01-30T11:30:30;101108.31;;;10.57;100.00
31096;BME280;17749;51.962;8.560;2024-01-30T11:33:27;101116.06;;;10.66;100.00
31096;BME280;17749;51.962;8.560;2024-01-30T11:36:00;101114.94;;;10.76;100.00
31096;BME280;17749;51.962;8.560;2024-01-30T11:38:28;101111.88;;;10.91;100.00
31096;BME280;17749;51.962;8.560;2024-01-30T11:40:56;101120.44;;;11.04;100.00
31096;BME280;17749;51.962;8.560;2024-01-30T11:43:25;101106.91;;;11.12;100.00
31096;BME280;17749;51.962;8.560;2024-01-30T11:45:53;101097.91;;;11.16;100.00
31096;BME280;17749;51.962;8.560;2024-01-30T11:48:20;101097.84;;;11.19;100.00
31096;BME280;17749;51.962;8.560;2024-01-30T11:50:47;101102.25;;;11.20;100.00
31096;BME280;17749;51.962;8.560;2024-01-30T11:53:15;101098.72;;;11.19;100.00
31096;BME280;17749;51.962;8.560;2024-01-30T11:55:49;101091.47;;;11.25;100.00
31096;BME280;17749;51.962;8.560;2024-01-30T11:58:16;101096.72;;;11.28;100.00
31096;BME280;17749;51.962;8.560;2024-01-30T12:00:53;101085.78;;;11.37;100.00
31096;BME280;17749;51.962;8.560;2024-01-30T12:03:20;101090.09;;;11.43;100.00
31096;BME280;17749;51.962;8.560;2024-01-30T12:05:55;101086.41;;;11.47;100.00
31096;BME280;17749;51.962;8.560;2024-01-30T12:08:22;101088.19;;;11.48;100.00
31096;BME280;17749;51.962;8.560;2024-01-30T12:10:58;101096.13;;;11.49;100.00
31096;BME280;17749;51.962;8.560;2024-01-30T12:13:26;101097.94;;;11.47;100.00
31096;BME280;17749;51.962;8.560;2024-01-30T12:15:59;101097.13;;;11.45;100.00
31096;BME280;17749;51.962;8.560;2024-01-30T12:18:26;101097.06;;;11.47;100.00
31096;BME280;17749;51.962;8.560;2024-01-30T12:21:00;101097.16;;;11.44;100.00
31096;BME280;17749;51.962;8.560;2024-01-30T12:23:28;101093.66;;;11.41;100.00
31096;BME280;17749;51.962;8.560;2024-01-30T12:25:55;101095.50;;;11.39;100.00
31096;BME280;17749;51.962;8.560;2024-01-30T12:28:23;101098.31;;;11.35;100.00
31096;BME280;17749;51.962;8.560;2024-01-30T12:30:49;101093.09;;;11.30;100.00
31096;BME280;17749;51.962;8.560;2024-01-30T12:33:17;101092.25;;;11.28;100.00
31096;BME280;17749;51.962;8.560;2024-01-30T12:35:47;101099.41;;;11.26;100.00
31096;BME280;17749;51.962;8.560;2024-01-30T12:38:28;101102.91;;;11.28;100.00
31096;BME280;17749;51.962;8.560;2024-01-30T12:40:55;101101.28;;;11.24;100.00
31096;BME280;17749;51.962;8.560;2024-01-30T12:43:26;101105.69;;;11.24;100.00
31096;BME280;17749;51.962;8.560;2024-01-30T12:46:05;101101.19;;;11.27;100.00
31096;BME280;17749;51.962;8.560;2024-01-30T12:48:33;101107.41;;;11.26;100.00
31096;BME280;17749;51.962;8.560;2024-01-30T12:51:00;101113.75;;;11.22;100.00
31096;BME280;17749;51.962;8.560;2024-01-30T12:53:28;101110.25;;;11.20;100.00
31096;BME280;17749;51.962;8.560;2024-01-30T12:55:55;101110.16;;;11.23;100.00
31096;BME280;17749;51.962;8.560;2024-01-30T12:58:22;101105.75;;;11.22;100.00
31096;BME280;17749;51.962;8.560;2024-01-30T13:00:49;101107.50;;;11.23;100.00
31096;BME280;17749;51.962;8.560;2024-01-30T13:03:17;101108.50;;;11.19;100.00
31096;BME280;17749;51.962;8.560;2024-01-30T13:05:44;101105.88;;;11.17;100.00
31096;BME280;17749;51.962;8.560;2024-01-30T13:08:11;101103.00;;;11.25;100.00
31096;BME280;17749;51.962;8.560;2024-01-30T13:10:38;101099.50;;;11.23;100.00
31096;BME280;17749;51.962;8.560;2024-01-30T13:13:05;101103.94;;;11.24;100.00
31096;BME280;17749;51.962;8.560;2024-01-30T13:15:42;101109.19;;;11.27;100.00
31096;BME280;17749;51.962;8.560;2024-01-30T13:18:09;101110.03;;;11.29;100.00
31096;BME280;17749;51.962;8.560;2024-01-30T13:20:37;101115.28;;;11.32;100.00
31096;BME280;17749;51.962;8.560;2024-01-30T13:23:04;101107.34;;;11.29;100.00
31096;BME280;17749;51.962;8.560;2024-01-30T13:25:31;101117.19;;;11.27;100.00
31096;BME280;17749;51.962;8.560;2024-01-30T13:27:58;101106.63;;;11.23;100.00
31096;BME280;17749;51.962;8.560;2024-01-30T13:30:26;101105.75;;;11.22;100.00
31096;BME280;17749;51.962;8.560;2024-01-30T13:32:52;101103.94;;;11.24;100.00
31096;BME280;17749;51.962;8.560;2024-01-30T13:35:20;101109.28;;;11.23;100.00
31096;BME280;17749;51.962;8.560;2024-01-30T13:37:47;101111.19;;;11.19;100.00
31096;BME280;17749;51.962;8.560;2024-01-30T13:40:15;101095.25;;;11.16;100.00
31096;BME280;17749;51.962;8.560;2024-01-30T13:42:43;101096.25;;;11.12;100.00
31096;BME280;17749;51.962;8.560;2024-01-30T13:45:10;101100.81;;;11.08;100.00
31096;BME280;17749;51.962;8.560;2024-01-30T13:47:38;101108.91;;;11.04;100.00
31096;BME280;17749;51.962;8.560;2024-01-30T13:50:05;101104.53;;;11.01;100.00
31096;BME280;17749;51.962;8.560;2024-01-30T13:52:33;101109.97;;;10.98;100.00
31096;BME280;17749;51.962;8.560;2024-01-30T13:55:10;101101.97;;;10.96;100.00
31096;BME280;17749;51.962;8.560;2024-01-30T13:57:38;101101.91;;;11.00;100.00
31096;BME280;17749;51.962;8.560;2024-01-30T14:00:05;101110.81;;;10.99;100.00
31096;BME280;17749;51.962;8.560;2024-01-30T14:02:39;101113.50;;;10.99;100.00
31096;BME280;17749;51.962;8.560;2024-01-30T14:05:07;101118.91;;;10.95;100.00
31096;BME280;17749;51.962;8.560;2024-01-30T14:07:35;101110.94;;;10.94;100.00
31096;BME280;17749;51.962;8.560;2024-01-30T14:10:04;101116.28;;;10.92;100.00
31096;BME280;17749;51.962;8.560;2024-01-30T14:12:37;101115.41;;;10.93;100.00
31096;BME280;17749;51.962;8.560;2024-01-30T14:15:06;101114.47;;;10.94;100.00
31096;BME280;17749;51.962;8.560;2024-01-30T14:17:49;101114.38;;;10.97;100.00
31096;BME280;17749;51.962;8.560;2024-01-30T14:20:16;101114.34;;;11.01;100.00
31096;BME280;17749;51.962;8.560;2024-01-30T14:22:44;101116.06;;;11.02;100.00
31096;BME280;17749;51.962;8.560;2024-01-30T14:25:11;101112.44;;;11.06;100.00
31096;BME280;17749;51.962;8.560;2024-01-30T14:27:39;101123.00;;;11.09;100.00
31096;BME280;17749;51.962;8.560;2024-01-30T14:30:08;101115.75;;;11.14;100.00
31096;BME280;17749;51.962;8.560;2024-01-30T14:32:37;101125.50;;;11.15;100.00
31096;BME280;17749;51.962;8.560;2024-01-30T14:35:05;101123.69;;;11.15;100.00
31096;BME280;17749;51.962;8.560;2024-01-30T14:37:32;101126.34;;;11.17;100.00
31096;BME280;17749;51.962;8.560;2024-01-30T14:39:59;101123.69;;;11.15;100.00
31096;BME280;17749;51.962;8.560;2024-01-30T14:42:27;101135.31;;;11.13;100.00
31096;BME280;17749;51.962;8.560;2024-01-30T14:44:58;101131.78;;;11.12;100.00
31096;BME280;17749;51.962;8.560;2024-01-30T14:47:25;101139.78;;;11.12;100.00
31096;BME280;17749;51.962;8.560;2024-01-30T14:49:55;101133.56;;;11.12;100.00
31096;BME280;17749;51.962;8.560;2024-01-30T14:52:22;101131.88;;;11.09;100.00
31096;BME280;17749;51.962;8.560;2024-01-30T14:54:49;101133.66;;;11.09;100.00
31096;BME280;17749;51.962;8.560;2024-01-30T14:57:16;101130.06;;;11.10;100.00
31096;BME280;17749;51.962;8.560;2024-01-30T14:59:43;101130.91;;;11.12;100.00
31096;BME280;17749;51.962;8.560;2024-01-30T15:02:11;101122.94;;;11.10;100.00
31096;BME280;17749;51.962;8.560;2024-01-30T15:04:38;101122.06;;;11.11;100.00
31096;BME280;17749;51.962;8.560;2024-01-30T15:07:05;101122.84;;;11.15;100.00
31096;BME280;17749;51.962;8.560;2024-01-30T15:09:32;101135.31;;;11.13;100.00
31096;BME280;17749;51.962;8.560;2024-01-30T15:12:00;101140.72;;;11.10;100.00
31096;BME280;17749;51.962;8.560;2024-01-30T15:14:27;101145.22;;;11.08;100.00
31096;BME280;17749;51.962;8.560;2024-01-30T15:16:54;101140.81;;;11.07;100.00
31096;BME280;17749;51.962;8.560;2024-01-30T15:19:22;101139.13;;;11.03;100.00
31096;BME280;17749;51.962;8.560;2024-01-30T15:21:49;101144.41;;;11.06;100.00
31096;BME280;17749;51.962;8.560;2024-01-30T15:24:16;101138.25;;;11.04;100.00
31096;BME280;17749;51.962;8.560;2024-01-30T15:26:44;101146.25;;;11.02;100.00
31096;BME280;17749;51.962;8.560;2024-01-30T15:29:11;101143.59;;;11.02;100.00
31096;BME280;17749;51.962;8.560;2024-01-30T15:31:38;101140.03;;;11.03;100.00
31096;BME280;17749;51.962;8.560;2024-01-30T15:34:06;101145.31;;;11.05;100.00
31096;BME280;17749;51.962;8.560;2024-01-30T15:36:33;101146.22;;;11.04;100.00
31096;BME280;17749;51.962;8.560;2024-01-30T15:38:59;101145.22;;;11.08;100.00
31096;BME280;17749;51.962;8.560;2024-01-30T15:41:27;101154.16;;;11.05;100.00
31096;BME280;17749;51.962;8.560;2024-01-30T15:43:53;101154.22;;;11.04;100.00
31096;BME280;17749;51.962;8.560;2024-01-30T15:46:21;101158.63;;;11.05;100.00
31096;BME280;17749;51.962;8.560;2024-01-30T15:48:48;101160.47;;;11.03;100.00
31096;BME280;17749;51.962;8.560;2024-01-30T15:51:16;101161.41;;;11.00;100.00
31096;BME280;17749;51.962;8.560;2024-01-30T15:53:43;101166.78;;;10.99;100.00
31096;BME280;17749;51.962;8.560;2024-01-30T15:56:10;101165.00;;;10.99;100.00
31096;BME280;17749;51.962;8.560;2024-01-30T15:58:37;101169.53;;;10.95;100.00
31096;BME280;17749;51.962;8.560;2024-01-30T16:01:04;101175.84;;;10.91;100.00
31096;BME280;17749;51.962;8.560;2024-01-30T16:03:31;101180.34;;;10.89;100.00
31096;BME280;17749;51.962;8.560;2024-01-30T16:05:58;101173.34;;;10.85;100.00
31096;BME280;17749;51.962;8.560;2024-01-30T16:08:26;101173.47;;;10.79;100.00
31096;BME280;17749;51.962;8.560;2024-01-30T16:10:53;101176.22;;;10.76;100.00
31096;BME280;17749;51.962;8.560;2024-01-30T16:13:20;101177.25;;;10.70;100.00
31096;BME280;17749;51.962;8.560;2024-01-30T16:15:47;101169.34;;;10.66;100.00
31096;BME280;17749;51.962;8.560;2024-01-30T16:18:14;101180.06;;;10.64;100.00
31096;BME280;17749;51.962;8.560;2024-01-30T16:20:42;101183.75;;;10.57;100.00
31096;BME280;17749;51.962;8.560;2024-01-30T16:23:10;101187.44;;;10.51;100.00
31096;BME280;17749;51.962;8.560;2024-01-30T16:25:37;101187.47;;;10.50;100.00
31096;BME280;17749;51.962;8.560;2024-01-30T16:28:04;101183.16;;;10.44;100.00
31096;BME280;17749;51.962;8.560;2024-01-30T16:30:31;101179.81;;;10.36;100.00
31096;BME280;17749;51.962;8.560;2024-01-30T16:32:59;101188.75;;;10.32;100.00
31096;BME280;17749;51.962;8.560;2024-01-30T16:35:27;101189.66;;;10.33;100.00
31096;BME280;17749;51.962;8.560;2024-01-30T16:38:12;101195.91;;;10.30;100.00
31096;BME280;17749;51.962;8.560;2024-01-30T16:40:39;101182.63;;;10.28;100.00
31096;BME280;17749;51.962;8.560;2024-01-30T16:43:07;101180.09;;;10.21;100.00
31096;BME280;17749;51.962;8.560;2024-01-30T16:45:34;101191.66;;;10.20;100.00
31096;BME280;17749;51.962;8.560;2024-01-30T16:48:01;101197.94;;;10.17;100.00
31096;BME280;17749;51.962;8.560;2024-01-30T16:50:28;101195.28;;;10.17;100.00
31096;BME280;17749;51.962;8.560;2024-01-30T16:52:55;101198.88;;;10.15;100.00
31096;BME280;17749;51.962;8.560;2024-01-30T16:55:22;101210.47;;;10.12;100.00
31096;BME280;17749;51.962;8.560;2024-01-30T16:57:52;101211.31;;;10.14;100.00
31096;BME280;17749;51.962;8.560;2024-01-30T17:00:19;101217.50;;;10.15;100.00
31096;BME280;17749;51.962;8.560;2024-01-30T17:02:47;101224.56;;;10.16;100.00
31096;BME280;17749;51.962;8.560;2024-01-30T17:05:14;101228.94;;;10.18;100.00
31096;BME280;17749;51.962;8.560;2024-01-30T17:07:54;101229.78;;;10.22;100.00
31096;BME280;17749;51.962;8.560;2024-01-30T17:10:21;101235.09;;;10.22;100.00
31096;BME280;17749;51.962;8.560;2024-01-30T17:12:48;101246.59;;;10.24;100.00
31096;BME280;17749;51.962;8.560;2024-01-30T17:15:16;101248.34;;;10.25;100.00
31096;BME280;17749;51.962;8.560;2024-01-30T17:17:43;101261.72;;;10.22;100.00
31096;BME280;17749;51.962;8.560;2024-01-30T17:20:10;101258.28;;;10.17;100.00
31096;BME280;17749;51.962;8.560;2024-01-30T17:22:39;101263.69;;;10.12;100.00
31096;BME280;17749;51.962;8.560;2024-01-30T17:25:11;101266.44;;;10.06;100.00
31096;BME280;17749;51.962;8.560;2024-01-30T17:27:38;101266.59;;;10.00;100.00
31096;BME280;17749;51.962;8.560;2024-01-30T17:30:06;101271.97;;;9.95;100.00
31096;BME280;17749;51.962;8.560;2024-01-30T17:32:34;101262.38;;;9.88;100.00
31096;BME280;17749;51.962;8.560;2024-01-30T17:35:01;101282.09;;;9.78;100.00
31096;BME280;17749;51.962;8.560;2024-01-30T17:37:28;101288.41;;;9.71;100.00
31096;BME280;17749;51.962;8.560;2024-01-30T17:39:55;101275.38;;;9.55;100.00
31096;BME280;17749;51.962;8.560;2024-01-30T17:42:23;101282.59;;;9.49;100.00
31096;BME280;17749;51.962;8.560;2024-01-30T17:44:51;101290.69;;;9.41;100.00
31096;BME280;17749;51.962;8.560;2024-01-30T17:47:18;101291.69;;;9.34;100.00
31096;BME280;17749;51.962;8.560;2024-01-30T17:49:45;101291.81;;;9.25;100.00
31096;BME280;17749;51.962;8.560;2024-01-30T17:52:12;101292.72;;;9.24;100.00
31096;BME280;17749;51.962;8.560;2024-01-30T17:54:39;101301.75;;;9.13;100.00
31096;BME280;17749;51.962;8.560;2024-01-30T17:57:06;101301.00;;;9.05;100.00
31096;BME280;17749;51.962;8.560;2024-01-30T17:59:36;101305.47;;;9.02;100.00
31096;BME280;17749;51.962;8.560;2024-01-30T18:02:03;101306.47;;;8.94;100.00
31096;BME280;17749;51.962;8.560;2024-01-30T18:04:30;101313.59;;;8.91;100.00
31096;BME280;17749;51.962;8.560;2024-01-30T18:06:59;101318.13;;;8.84;100.00
31096;BME280;17749;51.962;8.560;2024-01-30T18:09:26;101327.97;;;8.74;100.00
31096;BME280;17749;51.962;8.560;2024-01-30T18:11:53;101327.19;;;8.68;100.00
31096;BME280;17749;51.962;8.560;2024-01-30T18:14:21;101338.78;;;8.62;100.00
31096;BME280;17749;51.962;8.560;2024-01-30T18:16:48;101339.69;;;8.56;100.00
31096;BME280;17749;51.962;8.560;2024-01-30T18:19:16;101337.16;;;8.49;100.00
31096;BME280;17749;51.962;8.560;2024-01-30T18:21:43;101335.44;;;8.45;100.00
31096;BME280;17749;51.962;8.560;2024-01-30T18:24:11;101338.13;;;8.40;100.00
31096;BME280;17749;51.962;8.560;2024-01-30T18:26:38;101347.88;;;8.37;100.00
31096;BME280;17749;51.962;8.560;2024-01-30T18:29:05;101347.94;;;8.30;100.00
31096;BME280;17749;51.962;8.560;2024-01-30T18:31:32;101349.78;;;8.25;100.00
31096;BME280;17749;51.962;8.560;2024-01-30T18:34:00;101353.31;;;8.26;100.00
31096;BME280;17749;51.962;8.560;2024-01-30T18:36:28;101353.25;;;8.30;100.00
31096;BME280;17749;51.962;8.560;2024-01-30T18:38:56;101352.31;;;8.33;100.00
31096;BME280;17749;51.962;8.560;2024-01-30T18:41:23;101364.72;;;8.34;100.00
31096;BME280;17749;51.962;8.560;2024-01-30T18:43:50;101361.16;;;8.35;100.00
31096;BME280;17749;51.962;8.560;2024-01-30T18:46:17;101368.25;;;8.36;100.00
31096;BME280;17749;51.962;8.560;2024-01-30T18:48:49;101365.59;;;8.34;100.00
31096;BME280;17749;51.962;8.560;2024-01-30T18:51:16;101354.97;;;8.34;100.00
31096;BME280;17749;51.962;8.560;2024-01-30T18:53:44;101361.19;;;8.33;100.00
31096;BME280;17749;51.962;8.560;2024-01-30T18:56:12;101362.94;;;8.39;100.00
31096;BME280;17749;51.962;8.560;2024-01-30T18:58:39;101366.41;;;8.43;100.00
31096;BME280;17749;51.962;8.560;2024-01-30T19:01:07;101360.25;;;8.42;100.00